Time;durP1;ratioP1;P1;durP2;ratioP2;P2;SDS_P1;SDS_P2;PMS_P1;PMS_P2;Temp;Humidity;BMP_temperature;BMP_pressure;BME280_temperature;BME280_humidity;BME280_pressure;Samples;Min_cycle;Max_cycle;Signal;HPM_P1;HPM_P2
2022/11/07 00:02:49;;;;;;;10.85;8.90;;;11.00;81.50;;;;;;10680395;33;20115;-75
2022/11/07 00:08:52;;;;;;;13.80;10.38;;;11.00;81.50;;;;;;10729706;32;20469;-76
2022/11/07 00:14:54;;;;;;;20.12;11.73;;;11.00;81.50;;;;;;10680241;33;20044;-76
2022/11/07 00:21:08;;;;;;;16.42;12.45;;;11.10;81.60;;;;;;10679945;33;20025;-76
2022/11/07 00:27:10;;;;;;;17.23;10.70;;;11.10;81.60;;;;;;10802350;27;20356;-76
2022/11/07 00:33:12;;;;;;;15.60;12.63;;;11.20;81.90;;;;;;10751894;33;20434;-77
2022/11/07 00:39:14;;;;;;;14.77;11.23;;;11.10;81.80;;;;;;10751865;33;20397;-76
2022/11/07 00:45:16;;;;;;;13.60;9.88;;;11.10;81.80;;;;;;10751472;33;20036;-76
2022/11/07 00:51:22;;;;;;;15.70;11.85;;;11.20;81.70;;;;;;10751536;33;20020;-76
2022/11/07 00:57:24;;;;;;;13.45;10.55;;;11.10;81.70;;;;;;10750005;33;20103;-76
2022/11/07 01:09:47;;;;;;;12.50;10.35;;;11.00;81.70;;;;;;10752513;32;20074;-76
2022/11/07 01:15:49;;;;;;;10.85;8.27;;;11.00;81.70;;;;;;10751084;33;20020;-76
2022/11/07 01:21:51;;;;;;;15.27;11.60;;;11.00;81.80;;;;;;10750662;33;20322;-77
2022/11/07 01:27:53;;;;;;;15.80;11.80;;;10.90;81.80;;;;;;10800707;32;20047;-76
2022/11/07 01:33:57;;;;;;;10.80;8.27;;;10.90;81.90;;;;;;10750549;33;20055;-76
2022/11/07 01:39:59;;;;;;;10.20;7.30;;;10.90;81.80;;;;;;10750402;33;20021;-76
2022/11/07 01:46:01;;;;;;;12.85;8.10;;;10.80;81.80;;;;;;10750326;33;20020;-76
2022/11/07 01:52:22;;;;;;;13.70;10.02;;;10.80;81.90;;;;;;10750157;33;20349;-76
2022/11/07 01:58:25;;;;;;;12.73;9.00;;;10.80;81.90;;;;;;10800143;32;20424;-76
2022/11/07 02:04:29;;;;;;;10.85;7.78;;;10.70;81.90;;;;;;10749865;33;20020;-76
2022/11/07 02:10:33;;;;;;;11.85;9.25;;;10.70;81.90;;;;;;10749718;33;20409;-76
2022/11/07 02:16:36;;;;;;;11.68;8.00;;;10.60;82.00;;;;;;10754982;33;20365;-76
2022/11/07 02:22:58;;;;;;;8.98;7.32;;;10.60;82.00;;;;;;10755531;33;20104;-76
2022/11/07 02:29:04;;;;;;;13.95;8.48;;;10.60;82.00;;;;;;10755448;33;20032;-76
2022/11/07 02:35:37;;;;;;;10.60;8.73;;;10.60;82.00;;;;;;10755397;33;20055;-76
2022/11/07 02:41:40;;;;;;;10.57;8.02;;;10.50;82.00;;;;;;10794361;32;20047;-77
2022/11/07 02:47:41;;;;;;;16.05;9.80;;;10.50;82.00;;;;;;10793197;33;20036;-77
2022/11/07 02:53:45;;;;;;;10.57;7.75;;;10.40;82.00;;;;;;10794210;33;20036;-77
2022/11/07 02:59:47;;;;;;;11.88;8.40;;;10.30;82.00;;;;;;10791497;33;20054;-76
2022/11/07 03:05:50;;;;;;;12.00;7.15;;;10.30;82.10;;;;;;10792550;33;20063;-77
2022/11/07 03:11:52;;;;;;;11.45;8.57;;;10.20;82.10;;;;;;10793341;33;20048;-76
2022/11/07 03:17:54;;;;;;;10.88;8.88;;;10.20;82.20;;;;;;10765829;33;20047;-77
2022/11/07 03:23:57;;;;;;;12.02;8.90;;;10.20;82.10;;;;;;10748977;33;20059;-77
2022/11/07 03:29:59;;;;;;;12.52;10.25;;;10.20;82.10;;;;;;10753803;33;20024;-77
2022/11/07 03:36:02;;;;;;;14.82;9.18;;;10.20;82.10;;;;;;10799248;32;20060;-77
2022/11/07 03:42:04;;;;;;;12.75;10.52;;;10.10;82.10;;;;;;10753515;33;20024;-77
2022/11/07 03:48:06;;;;;;;11.77;9.02;;;10.00;82.20;;;;;;10749191;32;20055;-77
2022/11/07 03:54:09;;;;;;;12.18;8.98;;;10.00;82.30;;;;;;10753258;33;20044;-79
2022/11/07 04:00:24;;;;;;;8.20;6.03;;;10.00;82.20;;;;;;10748996;33;20098;-79
2022/11/07 04:06:46;;;;;;;8.32;5.80;;;10.00;82.20;;;;;;10794765;32;20055;-79
2022/11/07 04:19:09;;;;;;;10.02;7.82;;;9.90;82.20;;;;;;10752381;33;20333;-77
2022/11/07 04:25:11;;;;;;;11.02;8.05;;;9.90;82.20;;;;;;10752167;33;20348;-77
2022/11/07 04:31:13;;;;;;;8.70;6.28;;;9.80;82.20;;;;;;10748026;33;20029;-77
2022/11/07 04:37:17;;;;;;;8.52;5.82;;;9.80;82.30;;;;;;10751673;33;20441;-76
2022/11/07 04:43:19;;;;;;;9.00;6.97;;;9.80;82.40;;;;;;10748155;33;20020;-76
2022/11/07 04:49:21;;;;;;;9.32;6.53;;;9.80;82.40;;;;;;10751561;33;20036;-77
2022/11/07 04:55:25;;;;;;;10.93;6.50;;;9.70;82.40;;;;;;10801618;32;20021;-77
2022/11/07 05:01:28;;;;;;;9.70;6.87;;;9.60;82.50;;;;;;10751387;33;20098;-77
2022/11/07 05:07:30;;;;;;;11.20;7.62;;;9.60;82.40;;;;;;10751084;33;20025;-76
2022/11/07 05:13:32;;;;;;;12.00;7.93;;;9.50;82.60;;;;;;10750943;33;20146;-76
2022/11/07 05:19:35;;;;;;;10.70;6.80;;;9.50;82.50;;;;;;10751065;33;20029;-77
2022/11/07 05:25:41;;;;;;;8.95;6.25;;;9.60;82.50;;;;;;10800204;32;20036;-77
2022/11/07 05:31:47;;;;;;;12.00;8.07;;;9.70;82.40;;;;;;10750615;33;20021;-77
2022/11/07 05:37:49;;;;;;;11.15;7.00;;;9.80;82.20;;;;;;10750512;33;20336;-77
2022/11/07 05:43:51;;;;;;;11.02;8.00;;;10.10;82.10;;;;;;10750422;33;20047;-77
2022/11/07 05:49:53;;;;;;;11.82;7.35;;;10.20;81.60;;;;;;10754034;33;20291;-77
2022/11/07 05:55:55;;;;;;;9.93;6.32;;;10.10;81.60;;;;;;10756512;33;20051;-77
2022/11/07 06:01:58;;;;;;;14.70;6.78;;;10.10;82.00;;;;;;10806531;32;20385;-77
2022/11/07 06:07:59;;;;;;;9.68;6.12;;;10.20;81.90;;;;;;10756192;33;20029;-77
2022/11/07 06:14:02;;;;;;;9.45;7.10;;;10.30;82.00;;;;;;10755996;33;20037;-77
2022/11/07 06:20:04;;;;;;;11.50;7.57;;;10.50;82.30;;;;;;10752478;33;20063;-77
2022/11/07 06:26:07;;;;;;;18.48;8.20;;;10.40;82.00;;;;;;10755553;33;20062;-77
2022/11/07 06:32:09;;;;;;;14.07;9.88;;;10.30;81.80;;;;;;10755373;33;20017;-77
2022/11/07 06:38:13;;;;;;;10.52;7.10;;;10.40;81.70;;;;;;10752214;33;20037;-77
2022/11/07 06:44:16;;;;;;;9.85;7.47;;;10.50;81.50;;;;;;10755295;33;20048;-77
2022/11/07 06:50:18;;;;;;;9.55;6.43;;;10.50;81.50;;;;;;10755020;33;20037;-77
2022/11/07 06:56:20;;;;;;;12.50;7.10;;;10.30;81.60;;;;;;10754897;33;20321;-77
2022/11/07 07:02:22;;;;;;;10.70;6.85;;;10.40;81.70;;;;;;10800841;32;20068;-77
2022/11/07 07:08:24;;;;;;;9.68;7.03;;;10.20;81.80;;;;;;10749874;32;20032;-77
2022/11/07 07:14:26;;;;;;;11.85;6.50;;;10.20;82.20;;;;;;10780468;32;20032;-76
2022/11/07 07:20:29;;;;;;;8.35;5.82;;;10.30;82.40;;;;;;10715412;33;20393;-76
2022/11/07 07:26:32;;;;;;;9.07;5.97;;;10.40;82.20;;;;;;10717500;33;20025;-77
2022/11/07 07:32:35;;;;;;;10.50;6.87;;;10.30;82.60;;;;;;10722078;32;20075;-77
2022/11/07 07:38:38;;;;;;;10.40;6.55;;;10.40;83.10;;;;;;10713206;33;20033;-77
2022/11/07 07:44:40;;;;;;;8.50;6.28;;;10.70;83.00;;;;;;10716463;33;20051;-76
2022/11/07 07:50:46;;;;;;;7.22;5.40;;;10.80;82.90;;;;;;10716635;33;20029;-76
2022/11/07 07:56:57;;;;;;;11.63;5.95;;;10.90;83.00;;;;;;10712844;33;20034;-76
2022/11/07 08:03:01;;;;;;;6.95;4.35;;;11.00;83.20;;;;;;10712600;33;20059;-76
2022/11/07 08:09:53;;;;;;;7.50;4.68;;;11.10;83.30;;;;;;10716502;33;20012;-76
2022/11/07 08:15:55;;;;;;;5.95;4.43;;;11.10;83.50;;;;;;10716096;33;20071;-76
2022/11/07 08:21:58;;;;;;;5.05;3.12;;;11.20;83.70;;;;;;10724423;27;20040;-75
2022/11/07 08:28:07;;;;;;;8.07;4.40;;;11.20;83.90;;;;;;10736603;33;20039;-75
2022/11/07 08:34:09;;;;;;;4.62;3.47;;;11.20;84.00;;;;;;10752197;33;20021;-76
2022/11/07 08:40:12;;;;;;;4.28;2.78;;;11.20;84.00;;;;;;10751911;33;20042;-76
2022/11/07 08:46:14;;;;;;;5.03;2.72;;;11.20;84.20;;;;;;10751720;33;20025;-76
2022/11/07 08:52:16;;;;;;;4.70;2.85;;;11.30;84.30;;;;;;10751768;33;20020;-75
2022/11/07 08:58:18;;;;;;;4.18;2.47;;;11.40;84.30;;;;;;10738594;33;20058;-76
2022/11/07 09:04:21;;;;;;;4.62;2.97;;;11.50;84.50;;;;;;10748743;33;20028;-75
2022/11/07 09:11:04;;;;;;;3.05;1.42;;;11.60;84.50;;;;;;10747370;32;20071;-76
2022/11/07 09:17:06;;;;;;;3.45;2.30;;;11.70;84.70;;;;;;10751348;33;20393;-76
2022/11/07 09:23:08;;;;;;;3.87;2.17;;;11.70;84.80;;;;;;10749280;33;20024;-76
2022/11/07 09:29:11;;;;;;;4.10;1.90;;;11.80;84.90;;;;;;10755576;33;20401;-75
2022/11/07 09:35:13;;;;;;;3.28;2.08;;;11.90;84.90;;;;;;10757385;33;20039;-76
2022/11/07 09:41:54;;;;;;;2.60;1.92;;;12.00;84.80;;;;;;10757092;33;20419;-75
2022/11/07 09:48:04;;;;;;;4.72;2.65;;;12.10;85.00;;;;;;10753634;33;20044;-75
2022/11/07 09:54:12;;;;;;;;;;;12.30;84.50;;;;;;10757018;33;20340;-77
2022/11/07 10:00:19;;;;;;;6.22;1.75;;;12.40;84.20;;;;;;10756761;33;19963;-76
2022/11/07 10:06:39;;;;;;;3.78;2.30;;;12.50;84.30;;;;;;10756266;33;20413;-76
2022/11/07 10:13:03;;;;;;;2.47;1.67;;;12.70;84.50;;;;;;10756303;33;20047;-78
2022/11/07 10:19:29;;;;;;;2.30;1.75;;;12.80;84.20;;;;;;10751830;33;20029;-77
2022/11/07 10:25:43;;;;;;;2.95;1.60;;;12.90;83.90;;;;;;10755565;33;20051;-77
2022/11/07 10:32:05;;;;;;;5.32;3.37;;;13.00;83.70;;;;;;10755673;33;20025;-77
2022/11/07 10:38:34;;;;;;;4.87;2.45;;;13.20;82.90;;;;;;10715136;33;20017;-77
2022/11/07 10:44:45;;;;;;;5.50;1.93;;;13.30;82.80;;;;;;10749403;33;20056;-77
2022/11/07 10:50:52;;;;;;;10.52;2.87;;;13.60;82.50;;;;;;10754972;33;20021;-77
2022/11/07 10:57:27;;;;;;;3.30;2.12;;;13.90;82.10;;;;;;10750715;33;20016;-77
2022/11/07 11:03:45;;;;;;;2.12;1.75;;;14.20;81.60;;;;;;10742553;33;20317;-77
2022/11/07 11:09:55;;;;;;;8.00;4.57;;;14.50;80.90;;;;;;10754664;33;20046;-77
2022/11/07 11:16:06;;;;;;;4.93;2.30;;;14.70;80.80;;;;;;10804548;32;20043;-78
2022/11/07 11:22:16;;;;;;;4.40;2.67;;;14.90;80.30;;;;;;10754197;32;20032;-77
2022/11/07 11:28:33;;;;;;;5.90;3.25;;;15.00;79.60;;;;;;10804228;32;20025;-77
2022/11/07 11:34:56;;;;;;;4.07;2.50;;;15.20;79.10;;;;;;10752569;33;20024;-77
2022/11/07 11:41:34;;;;;;;3.75;2.45;;;15.20;79.00;;;;;;10753495;33;20028;-77
2022/11/07 11:48:01;;;;;;;4.30;2.70;;;15.30;78.40;;;;;;10750986;33;20036;-77
2022/11/07 11:54:06;;;;;;;5.35;2.85;;;15.20;77.30;;;;;;10749642;33;20021;-78
2022/11/07 12:00:20;;;;;;;8.23;5.35;;;15.10;76.70;;;;;;10748762;33;20029;-79
2022/11/07 12:07:15;;;;;;;5.93;4.00;;;15.00;76.60;;;;;;10736131;33;20024;-78
2022/11/07 12:13:42;;;;;;;5.47;3.40;;;14.90;76.20;;;;;;10614336;33;20022;-77
2022/11/07 12:19:56;;;;;;;5.90;3.72;;;15.00;76.60;;;;;;10639313;32;20038;-77
2022/11/07 12:26:15;;;;;;;6.07;3.97;;;15.00;76.00;;;;;;10634637;32;20064;-76
2022/11/07 12:32:42;;;;;;;7.82;3.47;;;14.90;75.60;;;;;;10638593;33;20064;-76
2022/11/07 12:39:03;;;;;;;8.90;5.05;;;14.90;75.60;;;;;;10639915;32;20044;-76
2022/11/07 12:45:21;;;;;;;6.45;4.03;;;14.90;75.10;;;;;;10640252;33;20064;-76
2022/11/07 12:52:00;;;;;;;6.75;3.33;;;14.90;74.60;;;;;;10751827;33;20039;-76
2022/11/07 12:58:23;;;;;;;6.05;3.95;;;15.00;75.00;;;;;;10751936;33;20043;-76
2022/11/07 13:04:41;;;;;;;4.65;3.28;;;15.00;74.50;;;;;;10751400;33;20024;-76
2022/11/07 13:11:11;;;;;;;5.35;3.33;;;15.00;74.40;;;;;;10802540;32;20033;-77
2022/11/07 13:17:23;;;;;;;9.10;4.72;;;15.10;74.40;;;;;;10751133;33;20056;-76
2022/11/07 13:23:27;;;;;;;4.90;3.35;;;15.00;74.40;;;;;;10746715;33;20435;-77
2022/11/07 13:29:38;;;;;;;7.93;4.62;;;15.00;74.20;;;;;;10750750;33;20032;-77
2022/11/07 13:35:53;;;;;;;5.70;3.70;;;15.10;73.90;;;;;;10750732;33;20039;-77
2022/11/07 13:41:58;;;;;;;6.80;3.50;;;15.10;73.70;;;;;;10747173;33;20025;-77
2022/11/07 13:48:08;;;;;;;7.50;3.95;;;15.20;74.00;;;;;;10750922;33;20427;-78
2022/11/07 13:54:26;;;;;;;12.00;6.25;;;15.20;73.30;;;;;;10746438;33;20047;-77
2022/11/07 14:00:36;;;;;;;8.63;4.80;;;15.30;73.20;;;;;;10750275;33;20051;-77
2022/11/07 14:06:39;;;;;;;9.05;4.35;;;15.30;73.00;;;;;;10750505;33;20033;-77
2022/11/07 14:12:42;;;;;;;8.02;5.20;;;15.40;72.10;;;;;;10738415;33;20051;-77
2022/11/07 14:18:49;;;;;;;5.55;3.58;;;15.30;72.10;;;;;;10756089;33;20051;-77
2022/11/07 14:24:54;;;;;;;5.75;3.78;;;15.30;72.10;;;;;;10752768;33;20028;-73
2022/11/07 14:30:56;;;;;;;6.10;4.25;;;15.30;72.10;;;;;;10754554;33;20055;-74
2022/11/07 14:37:04;;;;;;;5.80;3.17;;;15.30;71.50;;;;;;10737390;33;20029;-73
2022/11/07 14:43:09;;;;;;;6.50;3.72;;;15.30;71.30;;;;;;10754584;33;20044;-77
2022/11/07 14:49:30;;;;;;;6.50;3.33;;;15.40;71.40;;;;;;10755234;33;20047;-77
2022/11/07 14:56:00;;;;;;;5.62;3.65;;;15.30;71.70;;;;;;10739198;33;20051;-77
2022/11/07 15:02:31;;;;;;;5.47;2.67;;;15.30;71.90;;;;;;10755018;33;20353;-77
2022/11/07 15:08:35;;;;;;;5.15;3.22;;;15.20;72.30;;;;;;10828316;32;20060;-78
2022/11/07 15:14:37;;;;;;;4.82;3.42;;;15.10;72.90;;;;;;10787031;33;20047;-77
2022/11/07 15:20:39;;;;;;;4.07;2.75;;;14.90;73.40;;;;;;10789478;33;20019;-76
2022/11/07 15:26:41;;;;;;;4.87;2.50;;;14.80;73.80;;;;;;10790329;33;20062;-76
2022/11/07 15:32:44;;;;;;;3.92;2.12;;;14.70;74.10;;;;;;10788367;33;20055;-76
2022/11/07 15:38:47;;;;;;;4.50;2.53;;;14.50;74.50;;;;;;10773749;33;20021;-77
2022/11/07 15:44:49;;;;;;;5.82;2.87;;;14.40;74.90;;;;;;10774379;33;20294;-76
2022/11/07 15:50:51;;;;;;;3.85;2.03;;;14.30;75.20;;;;;;10789940;33;20028;-76
2022/11/07 15:56:59;;;;;;;2.85;1.52;;;14.20;75.60;;;;;;10785712;33;20039;-77
2022/11/07 16:03:01;;;;;;;5.87;3.23;;;14.10;75.80;;;;;;10786526;33;20113;-76
2022/11/07 16:09:10;;;;;;;6.40;2.75;;;14.00;76.20;;;;;;10760989;33;20025;-76
2022/11/07 16:15:15;;;;;;;4.72;3.40;;;13.90;76.60;;;;;;10752838;33;20032;-76
2022/11/07 16:21:33;;;;;;;5.32;3.17;;;13.80;77.00;;;;;;10745672;32;17116366;-76
2022/11/07 16:27:36;;;;;;;7.30;5.20;;;13.70;77.20;;;;;;10766367;33;20126;-76
2022/11/07 16:33:38;;;;;;;6.53;4.50;;;13.70;77.40;;;;;;10789289;33;20031;-76
2022/11/07 16:39:45;;;;;;;5.75;4.05;;;13.60;77.50;;;;;;10787440;33;20376;-76
2022/11/07 16:45:51;;;;;;;10.68;5.00;;;13.50;77.70;;;;;;10787169;33;20024;-76
2022/11/07 16:51:53;;;;;;;7.53;4.70;;;13.40;77.90;;;;;;10704004;33;20401;-76
2022/11/07 16:57:56;;;;;;;5.68;3.87;;;13.30;78.20;;;;;;10677837;33;20083;-76
2022/11/07 17:03:58;;;;;;;6.05;3.78;;;13.30;78.40;;;;;;10728336;32;20048;-76
2022/11/07 17:10:00;;;;;;;10.48;6.37;;;13.30;78.60;;;;;;10678269;33;20044;-77
2022/11/07 17:16:08;;;;;;;9.63;7.20;;;13.20;78.70;;;;;;10677346;33;20048;-76
2022/11/07 17:22:10;;;;;;;11.18;6.75;;;13.20;78.90;;;;;;10676049;33;20338;-76
2022/11/07 17:28:12;;;;;;;9.70;6.85;;;13.10;79.00;;;;;;10701456;32;20028;-76
2022/11/07 17:34:14;;;;;;;17.55;8.07;;;13.00;79.30;;;;;;10710304;33;20197;-76
2022/11/07 17:40:20;;;;;;;13.02;7.03;;;13.00;79.40;;;;;;10764201;32;20017;-76
2022/11/07 17:46:26;;;;;;;9.15;5.87;;;12.90;79.50;;;;;;10718264;33;20397;-76
2022/11/07 17:52:29;;;;;;;12.37;10.23;;;12.80;79.60;;;;;;10770082;32;20020;-76
2022/11/07 17:58:32;;;;;;;10.52;7.95;;;12.80;79.90;;;;;;10716487;33;20021;-76
2022/11/07 18:04:34;;;;;;;16.20;10.60;;;12.80;80.10;;;;;;10718727;33;20056;-76
2022/11/07 18:10:37;;;;;;;14.85;11.23;;;12.80;80.50;;;;;;10716065;33;20051;-76
2022/11/07 18:16:39;;;;;;;11.65;7.65;;;12.70;80.50;;;;;;10715178;33;20330;-76
2022/11/07 18:22:41;;;;;;;11.35;7.97;;;12.70;80.60;;;;;;10714880;33;20033;-76
2022/11/07 18:28:43;;;;;;;15.50;10.82;;;12.70;80.60;;;;;;10714428;33;20051;-76
2022/11/07 18:34:45;;;;;;;13.13;9.23;;;12.50;80.70;;;;;;10719339;33;20024;-77
2022/11/07 18:40:55;;;;;;;8.55;6.43;;;12.40;80.70;;;;;;10719217;33;20017;-76
2022/11/07 18:46:57;;;;;;;12.60;8.40;;;12.30;80.90;;;;;;10714861;33;20071;-76
2022/11/07 18:53:05;;;;;;;12.60;10.23;;;12.30;80.90;;;;;;10718812;33;20033;-76
2022/11/07 18:59:08;;;;;;;17.48;13.82;;;12.40;80.90;;;;;;10718473;32;20037;-76
2022/11/07 19:05:10;;;;;;;15.85;11.82;;;12.30;80.80;;;;;;10718631;33;20021;-76
2022/11/07 19:11:18;;;;;;;19.05;16.55;;;12.30;80.80;;;;;;10767152;32;20405;-76
2022/11/07 19:17:20;;;;;;;13.38;11.73;;;12.20;80.90;;;;;;10718153;33;20382;-77
2022/11/07 19:23:23;;;;;;;15.25;9.65;;;12.20;81.00;;;;;;10768104;32;20333;-76
2022/11/07 19:29:25;;;;;;;13.02;10.35;;;12.20;81.00;;;;;;10717893;32;20056;-76
2022/11/07 19:35:28;;;;;;;16.42;11.18;;;12.10;81.00;;;;;;10717070;33;20056;-76
2022/11/07 19:41:30;;;;;;;16.02;11.20;;;12.00;81.20;;;;;;10717488;33;20021;-76
2022/11/07 19:47:33;;;;;;;21.98;11.35;;;12.00;81.30;;;;;;10717292;33;20060;-76
2022/11/07 19:53:37;;;;;;;19.02;12.65;;;11.90;81.50;;;;;;10766302;32;20420;-76
2022/11/07 19:59:39;;;;;;;19.45;12.88;;;11.90;81.50;;;;;;10717086;32;20326;-76
2022/11/07 20:05:41;;;;;;;16.27;12.55;;;11.90;81.50;;;;;;10716084;33;20043;-77
2022/11/07 20:11:44;;;;;;;32.92;16.70;;;11.90;81.40;;;;;;10716629;33;20021;-76
2022/11/07 20:17:46;;;;;;;39.40;22.92;;;11.90;81.50;;;;;;10716598;33;20009;-76
2022/11/07 20:24:10;;;;;;;28.38;17.30;;;11.80;81.60;;;;;;10716290;33;20431;-76
2022/11/07 20:30:12;;;;;;;32.80;23.20;;;11.80;81.60;;;;;;10716028;33;20043;-76
2022/11/07 20:36:17;;;;;;;26.73;22.83;;;11.80;81.60;;;;;;10777056;32;20047;-76
2022/11/07 20:42:19;;;;;;;27.98;21.10;;;11.80;81.90;;;;;;10715819;32;20024;-77
2022/11/07 20:48:22;;;;;;;24.50;20.02;;;11.70;81.80;;;;;;10715684;32;20029;-76
2022/11/07 20:54:24;;;;;;;26.48;20.23;;;11.60;82.00;;;;;;10715557;33;20378;-76
2022/11/07 21:00:26;;;;;;;22.67;16.52;;;11.60;82.00;;;;;;10712514;33;20021;-76
2022/11/07 21:06:29;;;;;;;26.35;17.65;;;11.50;82.00;;;;;;10715043;33;20043;-76
2022/11/07 21:12:36;;;;;;;20.65;16.60;;;11.50;81.90;;;;;;10715022;33;20022;-76
2022/11/07 21:18:39;;;;;;;29.52;19.42;;;11.40;81.90;;;;;;10712418;33;20330;-77
2022/11/07 21:24:44;;;;;;;29.83;22.90;;;11.40;81.90;;;;;;10714752;33;20413;-76
2022/11/07 21:31:01;;;;;;;31.23;21.70;;;11.30;81.90;;;;;;10714719;33;20039;-76
2022/11/07 21:37:06;;;;;;;23.12;17.05;;;11.30;82.00;;;;;;10713923;33;20300;-76
2022/11/07 21:43:08;;;;;;;26.12;15.35;;;11.20;82.00;;;;;;10713594;33;20055;-76
2022/11/07 21:49:10;;;;;;;24.30;16.90;;;11.20;82.10;;;;;;10714272;33;20024;-77
2022/11/07 21:55:13;;;;;;;23.83;18.58;;;11.20;82.00;;;;;;10709985;33;20059;-78
2022/11/07 22:01:17;;;;;;;26.98;18.35;;;11.20;82.00;;;;;;10713936;33;20044;-78
2022/11/07 22:07:19;;;;;;;24.12;17.62;;;11.20;82.00;;;;;;10713740;33;20385;-77
2022/11/07 22:13:21;;;;;;;23.98;16.98;;;11.20;82.00;;;;;;10713812;33;20298;-77
2022/11/07 22:19:24;;;;;;;21.27;14.85;;;11.20;82.00;;;;;;10713498;33;20016;-78
2022/11/07 22:25:26;;;;;;;23.70;17.60;;;11.00;82.00;;;;;;10713247;33;20056;-78
2022/11/07 22:31:30;;;;;;;26.20;17.33;;;11.10;82.10;;;;;;10712397;33;20021;-78
2022/11/07 22:37:32;;;;;;;21.58;18.48;;;11.10;82.10;;;;;;10769469;32;20009;-78
2022/11/07 22:43:34;;;;;;;26.52;17.87;;;11.10;82.30;;;;;;10719112;33;20047;-78
2022/11/07 22:49:36;;;;;;;28.90;16.58;;;11.10;82.20;;;;;;10715919;33;20483;-78
2022/11/07 22:55:39;;;;;;;22.67;16.73;;;10.80;82.20;;;;;;10718692;33;20055;-78
2022/11/07 23:01:41;;;;;;;26.33;17.15;;;10.80;82.30;;;;;;10717673;33;20024;-78
2022/11/07 23:07:43;;;;;;;21.75;17.33;;;10.70;82.30;;;;;;10718591;33;20353;-78
2022/11/07 23:13:45;;;;;;;28.02;18.05;;;10.70;82.50;;;;;;10718431;33;20458;-79
2022/11/07 23:19:53;;;;;;;23.20;14.95;;;10.70;82.40;;;;;;10718051;33;20021;-78
2022/11/07 23:25:59;;;;;;;26.12;17.35;;;10.70;82.40;;;;;;10717833;33;20408;-77
2022/11/07 23:32:01;;;;;;;25.92;18.95;;;10.60;82.50;;;;;;10717817;33;20039;-76
2022/11/07 23:38:03;;;;;;;17.37;14.20;;;10.60;82.40;;;;;;10717190;33;20024;-77
2022/11/07 23:44:05;;;;;;;18.48;14.52;;;10.70;82.40;;;;;;10716406;33;20421;-77
2022/11/07 23:56:28;;;;;;;21.10;16.40;;;10.70;82.50;;;;;;10717163;33;20009;-77
